Time;durP1;ratioP1;P1;durP2;ratioP2;P2;SDS_P1;SDS_P2;PMS_P1;PMS_P2;Temp;Humidity;BMP_temperature;BMP_pressure;BME280_temperature;BME280_humidity;BME280_pressure;Samples;Min_cycle;Max_cycle;Signal;HPM_P1;HPM_P2
2021/12/02 00:01:36;;;;;;;8.98;2.53;;;3.70;99.90;;;;;;4965147;28;20126;-72
2021/12/02 00:04:03;;;;;;;9.85;2.65;;;3.70;99.90;;;;;;4966684;28;20051;-73
2021/12/02 00:06:31;;;;;;;14.80;2.25;;;3.70;99.90;;;;;;4965565;28;20069;-72
2021/12/02 00:08:58;;;;;;;16.60;2.78;;;3.70;99.90;;;;;;4966234;28;20061;-73
2021/12/02 00:11:25;;;;;;;14.77;2.15;;;3.70;99.90;;;;;;4979953;28;20070;-70
2021/12/02 00:16:26;;;;;;;5.05;2.03;;;3.70;99.90;;;;;;4965883;28;20059;-70
2021/12/02 00:21:42;;;;;;;7.30;1.80;;;3.60;99.90;;;;;;4966005;28;20046;-71
2021/12/02 00:24:10;;;;;;;11.15;1.92;;;3.60;99.90;;;;;;4950308;28;20527;-70
2021/12/02 00:26:39;;;;;;;12.35;2.35;;;3.60;99.90;;;;;;4964196;28;20951;-71
2021/12/02 00:29:08;;;;;;;10.27;2.40;;;3.60;99.90;;;;;;4972624;28;20050;-71
2021/12/02 00:31:38;;;;;;;8.95;2.20;;;3.60;99.90;;;;;;4953392;28;20118;-72
2021/12/02 00:34:07;;;;;;;8.10;2.88;;;3.50;99.90;;;;;;4964631;28;20142;-72
2021/12/02 00:36:37;;;;;;;13.85;3.42;;;3.60;99.90;;;;;;4964505;28;20086;-71
2021/12/02 00:39:14;;;;;;;18.55;3.95;;;3.60;99.90;;;;;;4964292;28;20443;-72
2021/12/02 00:41:42;;;;;;;15.52;3.47;;;3.60;99.90;;;;;;4965210;28;20063;-73
2021/12/02 00:44:10;;;;;;;9.75;2.30;;;3.60;99.90;;;;;;4965779;28;20057;-73
2021/12/02 00:46:37;;;;;;;13.20;3.17;;;3.60;99.90;;;;;;4948133;28;20050;-71
2021/12/02 00:49:11;;;;;;;18.13;3.35;;;3.60;99.90;;;;;;4947436;28;20054;-71
2021/12/02 00:51:40;;;;;;;12.65;3.25;;;3.60;99.90;;;;;;4965341;28;20081;-73
2021/12/02 00:54:11;;;;;;;22.13;3.22;;;3.60;99.90;;;;;;4967576;28;20062;-72
2021/12/02 00:56:40;;;;;;;17.05;2.88;;;3.50;99.90;;;;;;4945799;28;20051;-71
2021/12/02 00:59:07;;;;;;;15.50;2.55;;;3.60;99.90;;;;;;4966772;28;20054;-70
2021/12/02 01:01:36;;;;;;;13.82;2.45;;;3.50;99.90;;;;;;4963610;28;20137;-70
2021/12/02 01:04:12;;;;;;;22.67;3.83;;;3.50;99.90;;;;;;4948897;28;20074;-69
2021/12/02 01:06:42;;;;;;;11.73;2.47;;;3.50;99.90;;;;;;4977840;28;20467;-70
2021/12/02 01:09:11;;;;;;;13.40;1.77;;;3.60;99.90;;;;;;4962315;28;20142;-72
2021/12/02 01:11:39;;;;;;;16.80;2.95;;;3.60;99.90;;;;;;4949663;28;20050;-69
2021/12/02 01:14:08;;;;;;;11.60;2.42;;;3.50;99.90;;;;;;4931314;29;20094;-72
2021/12/02 01:16:35;;;;;;;7.65;1.95;;;3.50;99.90;;;;;;4972533;28;20050;-70
2021/12/02 01:19:04;;;;;;;14.05;2.17;;;3.50;99.90;;;;;;4994780;28;20047;-69
2021/12/02 01:21:31;;;;;;;8.93;1.65;;;3.60;99.90;;;;;;4995075;28;20162;-70
2021/12/02 01:24:04;;;;;;;10.77;1.95;;;3.60;99.90;;;;;;4963297;28;20501;-70
2021/12/02 01:26:32;;;;;;;13.23;2.55;;;3.60;99.90;;;;;;4948715;28;20081;-72
2021/12/02 01:29:02;;;;;;;9.15;2.05;;;3.60;99.90;;;;;;4964511;28;20058;-71
2021/12/02 01:31:34;;;;;;;14.48;1.98;;;3.50;99.90;;;;;;4962092;28;20046;-71
2021/12/02 01:34:08;;;;;;;12.88;2.20;;;3.50;99.90;;;;;;4947082;28;20442;-69
2021/12/02 01:36:38;;;;;;;10.00;1.65;;;3.50;99.90;;;;;;4960715;28;20519;-71
2021/12/02 01:39:06;;;;;;;13.10;2.03;;;3.60;99.90;;;;;;4962666;28;20055;-70
2021/12/02 01:41:42;;;;;;;11.02;1.67;;;3.50;99.90;;;;;;4948406;28;20050;-72
2021/12/02 01:44:11;;;;;;;14.93;2.65;;;3.50;99.90;;;;;;4963885;28;20693;-72
2021/12/02 01:46:39;;;;;;;17.58;2.90;;;3.40;99.90;;;;;;4962083;28;20050;-72
2021/12/02 01:49:09;;;;;;;14.50;2.35;;;3.40;99.90;;;;;;4961331;28;20085;-73
2021/12/02 01:51:49;;;;;;;12.82;3.35;;;3.30;99.90;;;;;;4965142;28;20228;-72
2021/12/02 01:54:18;;;;;;;15.40;2.08;;;3.30;99.90;;;;;;4963504;28;20423;-72
2021/12/02 01:56:54;;;;;;;12.02;2.20;;;3.20;99.90;;;;;;4962578;28;20050;-72
2021/12/02 01:59:28;;;;;;;11.00;1.60;;;3.20;99.90;;;;;;4945207;28;20051;-71
2021/12/02 02:01:59;;;;;;;13.27;3.20;;;3.20;99.90;;;;;;4952715;28;20050;-71
2021/12/02 02:04:26;;;;;;;12.63;2.15;;;3.20;99.90;;;;;;4961857;28;20070;-71
2021/12/02 02:06:57;;;;;;;19.02;2.63;;;3.30;99.90;;;;;;4972587;28;20097;-69
2021/12/02 02:09:27;;;;;;;14.10;3.33;;;3.30;99.90;;;;;;4960882;28;20141;-72
2021/12/02 02:11:54;;;;;;;18.48;2.30;;;3.30;99.90;;;;;;4963804;28;20046;-70
2021/12/02 02:14:25;;;;;;;10.65;2.05;;;3.20;99.90;;;;;;4963002;28;20485;-72
2021/12/02 02:16:52;;;;;;;11.93;1.85;;;3.20;99.90;;;;;;4961837;28;20058;-71
2021/12/02 02:19:19;;;;;;;13.23;2.95;;;3.20;99.90;;;;;;4945067;28;20495;-71
2021/12/02 02:21:46;;;;;;;9.93;2.28;;;3.30;99.90;;;;;;4961957;28;20111;-72
2021/12/02 02:24:15;;;;;;;9.50;1.60;;;3.30;99.90;;;;;;4961650;28;20055;-71
2021/12/02 02:26:43;;;;;;;16.52;1.95;;;3.30;99.90;;;;;;4961125;28;20047;-70
2021/12/02 02:29:13;;;;;;;8.20;1.63;;;3.30;99.90;;;;;;4961268;28;20053;-70
2021/12/02 02:31:42;;;;;;;18.55;2.30;;;3.30;99.90;;;;;;4962762;28;20426;-70
2021/12/02 02:34:12;;;;;;;11.88;2.08;;;3.20;99.90;;;;;;4961430;28;20149;-71
2021/12/02 02:36:50;;;;;;;13.40;1.70;;;3.20;99.90;;;;;;4961690;28;20043;-70
2021/12/02 02:39:18;;;;;;;13.90;2.30;;;3.30;99.90;;;;;;4961572;28;20145;-71
2021/12/02 02:41:46;;;;;;;15.27;2.05;;;3.30;99.90;;;;;;4967990;28;20045;-68
2021/12/02 02:44:13;;;;;;;15.50;2.10;;;3.30;99.90;;;;;;4961640;28;20427;-70
2021/12/02 02:46:41;;;;;;;13.40;2.22;;;3.30;99.90;;;;;;4978302;28;20046;-70
2021/12/02 02:49:12;;;;;;;12.50;2.13;;;3.20;99.90;;;;;;4962525;28;20055;-71
2021/12/02 02:51:41;;;;;;;15.27;2.38;;;3.30;99.90;;;;;;4945866;28;20062;-71
2021/12/02 02:54:10;;;;;;;15.13;2.60;;;3.20;99.90;;;;;;4963347;28;20062;-71
2021/12/02 02:57:03;;;;;;;8.65;2.75;;;3.20;99.90;;;;;;4944218;28;20543;-70
2021/12/02 03:00:04;;;;;;;16.67;2.83;;;3.20;99.90;;;;;;4954989;28;20074;-71
2021/12/02 03:05:05;;;;;;;16.25;2.40;;;3.20;99.90;;;;;;4958850;28;20055;-70
2021/12/02 03:07:43;;;;;;;13.30;2.75;;;3.20;99.90;;;;;;4942038;28;20053;-72
2021/12/02 03:13:21;;;;;;;10.55;2.03;;;3.20;99.90;;;;;;4884738;29;20044;-70
2021/12/02 03:18:37;;;;;;;14.57;2.35;;;3.10;99.90;;;;;;4957758;28;20050;-70
2021/12/02 03:21:20;;;;;;;16.25;2.50;;;3.10;99.90;;;;;;4959246;28;20577;-69
2021/12/02 03:23:51;;;;;;;12.35;2.10;;;3.10;99.90;;;;;;4962751;28;20047;-70
2021/12/02 03:26:18;;;;;;;7.60;1.65;;;3.10;99.90;;;;;;4941367;28;20045;-70
2021/12/02 03:28:53;;;;;;;15.60;2.28;;;3.10;99.90;;;;;;4959082;28;20054;-71
2021/12/02 03:31:21;;;;;;;15.15;2.88;;;3.00;99.90;;;;;;4944420;28;20522;-70
2021/12/02 03:33:49;;;;;;;10.98;2.30;;;3.00;99.90;;;;;;4952937;28;20101;-71
2021/12/02 03:36:18;;;;;;;20.75;3.58;;;3.10;99.90;;;;;;4960401;28;20146;-70
2021/12/02 03:38:45;;;;;;;15.50;2.20;;;3.00;99.90;;;;;;4964110;28;20070;-70
2021/12/02 03:41:14;;;;;;;13.52;3.28;;;3.00;99.90;;;;;;4964176;28;20546;-71
2021/12/02 03:43:43;;;;;;;23.23;3.33;;;3.00;99.90;;;;;;4948106;28;20046;-70
2021/12/02 03:46:12;;;;;;;16.77;2.75;;;3.00;99.90;;;;;;4943684;28;20129;-71
2021/12/02 03:48:39;;;;;;;8.93;2.08;;;3.10;99.90;;;;;;4964102;28;20416;-71
2021/12/02 03:51:07;;;;;;;20.25;3.28;;;3.10;99.90;;;;;;4965164;28;20075;-70
2021/12/02 03:53:34;;;;;;;19.27;2.80;;;3.10;99.90;;;;;;4965042;28;20089;-71
2021/12/02 03:56:02;;;;;;;15.15;2.58;;;3.10;99.90;;;;;;4963117;28;20499;-70
2021/12/02 03:58:30;;;;;;;14.45;3.63;;;3.10;99.90;;;;;;4930202;28;20516;-70
2021/12/02 04:00:57;;;;;;;23.92;3.85;;;3.10;99.90;;;;;;4947549;28;20047;-71
2021/12/02 04:03:24;;;;;;;17.05;3.20;;;3.10;99.90;;;;;;4947575;28;20134;-71
2021/12/02 04:05:52;;;;;;;21.60;3.60;;;3.10;99.90;;;;;;4961071;28;20068;-71
2021/12/02 04:08:24;;;;;;;24.73;3.78;;;3.10;99.90;;;;;;4962784;28;20758;-69
2021/12/02 04:10:58;;;;;;;15.82;4.85;;;3.10;99.90;;;;;;4948343;28;20058;-71
2021/12/02 04:13:30;;;;;;;14.43;4.20;;;3.00;99.90;;;;;;4947149;28;20442;-70
2021/12/02 04:16:02;;;;;;;18.38;4.45;;;3.00;99.90;;;;;;4964518;28;20297;-72
2021/12/02 04:18:29;;;;;;;22.48;4.05;;;3.00;99.90;;;;;;4965089;28;20491;-73
2021/12/02 04:20:56;;;;;;;16.55;4.43;;;3.00;99.90;;;;;;4960526;28;20539;-71
2021/12/02 04:23:23;;;;;;;14.90;2.60;;;2.90;99.90;;;;;;4947171;28;20043;-72
2021/12/02 04:25:50;;;;;;;18.98;3.83;;;2.90;99.90;;;;;;4966370;28;20049;-71
2021/12/02 04:28:17;;;;;;;14.38;3.08;;;2.80;99.90;;;;;;4944912;28;20052;-73
2021/12/02 04:30:43;;;;;;;10.18;2.58;;;2.60;99.90;;;;;;4961687;28;20459;-73
2021/12/02 04:33:10;;;;;;;13.50;2.22;;;2.50;99.90;;;;;;4960431;28;20495;-73
2021/12/02 04:35:37;;;;;;;10.35;1.38;;;2.30;99.90;;;;;;4953987;28;20050;-73
2021/12/02 04:38:04;;;;;;;7.80;1.98;;;2.30;99.90;;;;;;4974771;28;20478;-71
2021/12/02 04:40:31;;;;;;;15.77;2.00;;;2.30;99.90;;;;;;4960978;28;20422;-73
2021/12/02 04:42:58;;;;;;;7.90;1.73;;;2.30;99.90;;;;;;4960487;28;20145;-72
2021/12/02 04:45:25;;;;;;;13.73;2.03;;;2.20;99.90;;;;;;4944541;28;20046;-73
2021/12/02 04:47:52;;;;;;;9.25;1.45;;;2.20;99.90;;;;;;4962246;28;20061;-71
2021/12/02 04:50:19;;;;;;;9.35;1.75;;;2.30;99.90;;;;;;4962674;28;20046;-71
2021/12/02 04:52:46;;;;;;;13.68;1.73;;;2.30;99.90;;;;;;4964518;28;20492;-73
2021/12/02 04:55:13;;;;;;;14.77;1.70;;;2.30;99.90;;;;;;4963881;28;20058;-72
2021/12/02 04:57:40;;;;;;;10.60;2.70;;;2.30;99.90;;;;;;4960771;28;20484;-72
2021/12/02 05:00:12;;;;;;;11.00;1.67;;;2.30;99.90;;;;;;4961355;28;20149;-72
2021/12/02 05:02:40;;;;;;;8.93;1.60;;;2.40;99.90;;;;;;4965075;28;20051;-72
2021/12/02 05:05:11;;;;;;;10.82;1.70;;;2.40;99.90;;;;;;4953143;28;20082;-71
2021/12/02 05:07:38;;;;;;;9.23;2.05;;;2.40;99.90;;;;;;4953304;28;20125;-71
2021/12/02 05:10:07;;;;;;;14.27;2.47;;;2.40;99.90;;;;;;4960198;28;20106;-71
2021/12/02 05:12:34;;;;;;;11.32;2.08;;;2.50;99.90;;;;;;4926950;28;20108;-72
2021/12/02 05:15:02;;;;;;;10.68;2.28;;;2.50;99.90;;;;;;4959873;28;20049;-72
2021/12/02 05:17:28;;;;;;;14.05;3.90;;;2.50;99.90;;;;;;4958301;28;20076;-73
2021/12/02 05:19:56;;;;;;;14.27;4.40;;;2.50;99.90;;;;;;4960700;28;20047;-72
2021/12/02 05:22:22;;;;;;;11.05;4.78;;;2.50;99.90;;;;;;4955961;28;20724;-72
2021/12/02 05:24:49;;;;;;;12.27;4.63;;;2.50;99.90;;;;;;4958982;28;20055;-71
2021/12/02 05:27:16;;;;;;;16.95;6.50;;;2.60;99.90;;;;;;4950867;28;20419;-70
2021/12/02 05:29:43;;;;;;;20.85;6.57;;;2.60;99.90;;;;;;4942566;28;20525;-70
2021/12/02 05:32:10;;;;;;;18.90;6.30;;;2.60;99.90;;;;;;4958988;28;20396;-70
2021/12/02 05:34:37;;;;;;;16.83;7.88;;;2.60;99.90;;;;;;4958106;28;20042;-70
2021/12/02 05:37:04;;;;;;;23.70;9.00;;;2.50;99.90;;;;;;4954520;28;20395;-70
2021/12/02 05:39:31;;;;;;;26.63;10.45;;;2.60;99.90;;;;;;4956568;28;20053;-71
2021/12/02 05:41:57;;;;;;;28.55;9.90;;;2.60;99.90;;;;;;4956753;28;20054;-71
2021/12/02 05:44:24;;;;;;;33.13;10.95;;;2.60;99.90;;;;;;4939243;28;20139;-71
2021/12/02 05:46:52;;;;;;;29.88;11.77;;;2.60;99.90;;;;;;4941973;28;20721;-70
2021/12/02 05:49:18;;;;;;;23.33;10.73;;;2.60;99.90;;;;;;4957288;28;20092;-71
2021/12/02 05:51:46;;;;;;;30.35;11.35;;;2.60;99.90;;;;;;4958971;28;20231;-70
2021/12/02 05:54:13;;;;;;;33.85;12.00;;;2.60;99.90;;;;;;4942641;28;20150;-69
2021/12/02 05:56:40;;;;;;;36.33;12.50;;;2.60;99.90;;;;;;4956249;28;20108;-69
2021/12/02 05:59:08;;;;;;;36.88;13.02;;;2.60;99.90;;;;;;4958499;28;20393;-71
2021/12/02 06:01:37;;;;;;;32.05;13.05;;;2.60;99.90;;;;;;4941716;28;20063;-71
2021/12/02 06:04:04;;;;;;;30.08;13.43;;;2.60;99.90;;;;;;4943091;28;20051;-70
2021/12/02 06:06:31;;;;;;;42.20;14.25;;;2.70;99.90;;;;;;4956601;28;20116;-69
2021/12/02 06:08:58;;;;;;;27.40;11.80;;;2.70;99.90;;;;;;4955042;28;20563;-70
2021/12/02 06:11:25;;;;;;;30.75;11.05;;;2.70;99.90;;;;;;4970562;28;20057;-70
2021/12/02 06:13:52;;;;;;;33.55;12.57;;;2.60;99.90;;;;;;4973493;28;20057;-70
2021/12/02 06:16:20;;;;;;;29.88;11.00;;;2.70;99.90;;;;;;4972911;28;20119;-70
2021/12/02 06:18:48;;;;;;;17.45;9.27;;;2.70;99.90;;;;;;4957080;28;20532;-71
2021/12/02 06:21:15;;;;;;;21.40;8.02;;;2.70;99.90;;;;;;4954078;28;20053;-69
2021/12/02 06:23:42;;;;;;;24.13;7.20;;;2.60;99.90;;;;;;4959020;28;20046;-69
2021/12/02 06:26:09;;;;;;;16.38;5.43;;;2.60;99.90;;;;;;4959936;28;20050;-71
2021/12/02 06:28:37;;;;;;;12.55;5.57;;;2.60;99.90;;;;;;4956367;28;20043;-71
2021/12/02 06:31:06;;;;;;;19.60;6.70;;;2.60;99.90;;;;;;4957316;28;20076;-72
2021/12/02 06:33:33;;;;;;;20.27;6.97;;;2.60;99.90;;;;;;4942804;28;20062;-68
2021/12/02 06:36:00;;;;;;;33.78;7.55;;;2.60;99.90;;;;;;4954830;28;20055;-71
2021/12/02 06:38:27;;;;;;;20.38;6.95;;;2.60;99.90;;;;;;4958622;28;20043;-70
2021/12/02 06:40:54;;;;;;;21.48;6.97;;;2.60;99.90;;;;;;4956606;28;20400;-70
2021/12/02 06:43:21;;;;;;;18.48;8.10;;;2.60;99.90;;;;;;4962326;28;20157;-72
2021/12/02 06:45:48;;;;;;;18.80;7.78;;;2.50;99.90;;;;;;4958497;28;20053;-70
2021/12/02 06:48:15;;;;;;;23.67;7.75;;;2.50;99.90;;;;;;4954796;28;20039;-70
2021/12/02 06:50:43;;;;;;;18.35;6.88;;;2.60;99.90;;;;;;4956670;28;20066;-70
2021/12/02 06:53:10;;;;;;;14.90;6.72;;;2.50;99.90;;;;;;4959912;28;20050;-69
2021/12/02 06:55:37;;;;;;;19.88;8.02;;;2.50;99.90;;;;;;4960421;28;20070;-70
2021/12/02 06:58:04;;;;;;;21.38;8.27;;;2.50;99.90;;;;;;4956377;28;20042;-72
2021/12/02 07:00:31;;;;;;;20.80;7.93;;;2.40;99.90;;;;;;4939628;28;20067;-72
2021/12/02 07:02:58;;;;;;;14.30;6.93;;;2.40;99.90;;;;;;4956226;28;20081;-70
2021/12/02 07:05:25;;;;;;;15.55;7.72;;;2.40;99.90;;;;;;4972253;28;20038;-72
2021/12/02 07:07:52;;;;;;;18.65;8.88;;;2.30;99.90;;;;;;4962881;28;20046;-73
2021/12/02 07:10:23;;;;;;;34.55;10.10;;;2.30;99.90;;;;;;4945267;28;20157;-71
2021/12/02 07:12:57;;;;;;;17.48;8.07;;;2.30;99.90;;;;;;4964364;28;20706;-72
2021/12/02 07:15:40;;;;;;;30.23;9.52;;;2.20;99.90;;;;;;4963912;28;20701;-73
2021/12/02 07:18:14;;;;;;;21.95;9.18;;;2.20;99.90;;;;;;4962153;28;20050;-74
2021/12/02 07:20:44;;;;;;;18.70;8.77;;;2.20;99.90;;;;;;4961196;28;20043;-71
2021/12/02 07:23:11;;;;;;;21.30;7.80;;;2.20;99.90;;;;;;4975866;28;20761;-73
2021/12/02 07:25:41;;;;;;;21.35;8.73;;;2.20;99.90;;;;;;4965271;28;20105;-72
2021/12/02 07:28:10;;;;;;;24.30;9.50;;;2.20;99.90;;;;;;4962601;28;20050;-73
2021/12/02 07:30:38;;;;;;;22.63;9.30;;;2.20;99.90;;;;;;4962795;28;20054;-72
2021/12/02 07:33:08;;;;;;;19.25;7.70;;;2.20;99.90;;;;;;4962392;28;20077;-75
2021/12/02 07:35:35;;;;;;;25.65;10.10;;;2.20;99.90;;;;;;4963471;28;20066;-72
2021/12/02 07:38:03;;;;;;;24.95;10.57;;;2.20;99.90;;;;;;4959390;28;20074;-73
2021/12/02 07:40:35;;;;;;;21.20;10.27;;;2.30;99.90;;;;;;4963190;28;20054;-72
2021/12/02 07:43:03;;;;;;;22.58;10.48;;;2.30;99.90;;;;;;4963216;28;20042;-73
2021/12/02 07:45:34;;;;;;;28.05;10.48;;;2.20;99.90;;;;;;4965734;28;20053;-73
2021/12/02 07:48:04;;;;;;;15.65;7.43;;;2.20;99.90;;;;;;4963677;28;20074;-72
2021/12/02 07:50:33;;;;;;;16.65;5.90;;;2.20;99.90;;;;;;4963249;28;20142;-73
2021/12/02 07:53:04;;;;;;;14.43;6.35;;;2.10;99.90;;;;;;4947509;28;20126;-72
2021/12/02 07:55:36;;;;;;;16.20;7.97;;;1.90;99.90;;;;;;4947852;28;20047;-74
2021/12/02 07:58:06;;;;;;;21.60;8.68;;;1.90;99.90;;;;;;4961613;28;20054;-72
2021/12/02 08:00:34;;;;;;;15.60;6.82;;;1.90;99.90;;;;;;4947986;28;20089;-70
2021/12/02 08:03:05;;;;;;;24.45;8.40;;;1.90;99.90;;;;;;4964426;28;20109;-71
2021/12/02 08:05:32;;;;;;;15.20;7.32;;;1.90;99.90;;;;;;4944871;28;21410;-72
2021/12/02 08:07:59;;;;;;;19.35;7.47;;;2.00;99.90;;;;;;4962795;28;20105;-71
2021/12/02 08:10:27;;;;;;;19.95;8.63;;;2.00;99.90;;;;;;4962654;28;20071;-72
2021/12/02 08:12:54;;;;;;;18.42;7.85;;;2.00;99.90;;;;;;4948771;28;20051;-70
2021/12/02 08:15:25;;;;;;;23.83;8.88;;;2.10;99.90;;;;;;4979182;28;20050;-71
2021/12/02 08:17:53;;;;;;;25.50;10.68;;;2.10;99.90;;;;;;4946308;28;20057;-69
2021/12/02 08:20:21;;;;;;;25.70;10.80;;;2.10;99.90;;;;;;4964705;28;20047;-70
2021/12/02 08:22:49;;;;;;;24.52;11.13;;;2.20;99.90;;;;;;4964322;28;20186;-71
2021/12/02 08:25:16;;;;;;;22.60;9.75;;;2.20;99.90;;;;;;4946504;28;20393;-73
2021/12/02 08:27:43;;;;;;;16.67;9.25;;;2.20;99.90;;;;;;4946371;28;20047;-72
2021/12/02 08:30:13;;;;;;;18.95;9.77;;;2.10;99.90;;;;;;4963822;28;20143;-73
2021/12/02 08:32:42;;;;;;;26.40;11.25;;;2.10;99.90;;;;;;4963985;28;20058;-71
2021/12/02 08:35:11;;;;;;;22.63;11.57;;;2.30;99.90;;;;;;4960247;28;20508;-73
2021/12/02 08:37:44;;;;;;;21.92;11.18;;;2.30;99.90;;;;;;4947009;28;20050;-73
2021/12/02 08:40:15;;;;;;;15.13;8.85;;;2.30;99.90;;;;;;4961336;28;20051;-72
2021/12/02 08:42:43;;;;;;;16.20;8.43;;;2.20;99.90;;;;;;4961700;28;20228;-74
2021/12/02 08:45:10;;;;;;;20.92;10.93;;;2.30;99.90;;;;;;4963346;28;20051;-72
2021/12/02 08:47:43;;;;;;;23.85;12.23;;;2.20;99.90;;;;;;4960878;28;20063;-73
2021/12/02 08:50:17;;;;;;;19.77;10.27;;;2.30;99.90;;;;;;4964053;28;20444;-71
2021/12/02 08:52:45;;;;;;;19.83;10.00;;;2.30;99.90;;;;;;4963758;28;20050;-71
2021/12/02 08:55:13;;;;;;;21.77;10.23;;;2.30;99.90;;;;;;4963952;28;20055;-71
2021/12/02 08:57:50;;;;;;;20.55;9.65;;;2.30;99.90;;;;;;4962419;28;20070;-71
2021/12/02 09:00:20;;;;;;;16.67;10.07;;;2.30;99.90;;;;;;4962516;28;20039;-71
2021/12/02 09:02:48;;;;;;;24.05;10.93;;;2.30;99.90;;;;;;4962749;28;20051;-71
2021/12/02 09:05:15;;;;;;;25.13;10.00;;;2.40;99.90;;;;;;4960739;28;20133;-70
2021/12/02 09:07:42;;;;;;;19.77;9.77;;;2.40;99.90;;;;;;4945278;28;20035;-71
2021/12/02 09:10:13;;;;;;;22.42;10.05;;;2.40;99.90;;;;;;4960135;28;20047;-71
2021/12/02 09:12:42;;;;;;;16.92;9.65;;;2.40;99.90;;;;;;4962434;28;20046;-70
2021/12/02 09:15:09;;;;;;;19.25;10.68;;;2.40;99.90;;;;;;4963249;28;20534;-71
2021/12/02 09:17:37;;;;;;;15.75;9.32;;;2.50;99.90;;;;;;4961097;28;20065;-70
2021/12/02 09:20:06;;;;;;;25.42;8.93;;;2.40;99.90;;;;;;4961563;28;20047;-69
2021/12/02 09:22:33;;;;;;;18.33;7.50;;;2.40;99.90;;;;;;4979412;28;20058;-70
2021/12/02 09:25:02;;;;;;;15.85;8.13;;;2.40;99.90;;;;;;4963055;28;20053;-70
2021/12/02 09:27:29;;;;;;;13.55;6.15;;;2.50;99.90;;;;;;4963311;28;20058;-72
2021/12/02 09:29:56;;;;;;;17.00;8.48;;;2.40;99.90;;;;;;4962027;28;20519;-71
2021/12/02 09:32:23;;;;;;;12.30;6.85;;;2.40;99.90;;;;;;4930344;28;20064;-72
2021/12/02 09:34:50;;;;;;;14.20;7.10;;;2.40;99.90;;;;;;4960806;28;20483;-73
2021/12/02 09:37:20;;;;;;;14.82;7.32;;;2.40;99.90;;;;;;4960980;28;20046;-73
2021/12/02 09:39:47;;;;;;;16.00;7.72;;;2.50;99.90;;;;;;4962376;28;20492;-72
2021/12/02 09:42:14;;;;;;;16.10;7.20;;;2.50;99.90;;;;;;4948277;28;20146;-73
2021/12/02 09:44:58;;;;;;;12.50;5.65;;;2.50;99.90;;;;;;4965481;28;20212;-73
2021/12/02 09:47:28;;;;;;;17.17;7.70;;;2.40;99.90;;;;;;4943529;28;20043;-72
2021/12/02 09:49:55;;;;;;;12.75;5.63;;;2.40;99.90;;;;;;4962579;28;20539;-75
2021/12/02 09:52:30;;;;;;;15.63;6.47;;;2.50;99.90;;;;;;4944202;28;20066;-73
2021/12/02 09:55:05;;;;;;;10.23;5.13;;;2.50;99.90;;;;;;4965425;28;20367;-71
2021/12/02 09:57:41;;;;;;;16.70;5.32;;;2.40;99.90;;;;;;4963649;28;20065;-69
2021/12/02 10:00:16;;;;;;;14.00;6.65;;;2.40;99.90;;;;;;4959890;28;20051;-71
2021/12/02 10:02:52;;;;;;;10.90;5.70;;;2.40;99.90;;;;;;4944801;28;20356;-71
2021/12/02 10:05:35;;;;;;;13.27;5.75;;;2.40;99.90;;;;;;4960484;28;20053;-71
2021/12/02 10:08:04;;;;;;;10.43;5.43;;;2.50;99.90;;;;;;4957444;28;20137;-71
2021/12/02 10:10:35;;;;;;;15.73;7.10;;;2.40;99.90;;;;;;4960795;28;20042;-71
2021/12/02 10:16:20;;;;;;;14.60;7.53;;;2.50;99.90;;;;;;4977906;28;20559;-71
2021/12/02 10:21:31;;;;;;;16.92;7.30;;;2.60;99.90;;;;;;4961218;28;20058;-73
2021/12/02 10:24:11;;;;;;;14.48;6.53;;;2.60;99.90;;;;;;4945890;28;20050;-70
2021/12/02 10:26:45;;;;;;;18.42;8.73;;;2.60;99.90;;;;;;4960512;28;20097;-72
2021/12/02 10:29:24;;;;;;;12.50;7.65;;;2.70;99.90;;;;;;4944609;28;20102;-72
2021/12/02 10:32:09;;;;;;;15.63;7.15;;;2.80;99.90;;;;;;4961328;28;20069;-72
2021/12/02 10:34:54;;;;;;;12.18;7.22;;;2.80;99.90;;;;;;4964517;28;20047;-72
2021/12/02 10:37:25;;;;;;;12.10;6.95;;;2.80;99.90;;;;;;4961171;28;20427;-73
2021/12/02 10:39:56;;;;;;;12.10;6.40;;;2.70;99.90;;;;;;4976614;28;20051;-73
2021/12/02 10:42:24;;;;;;;10.63;5.70;;;2.80;99.90;;;;;;4961450;28;20056;-73
2021/12/02 10:44:51;;;;;;;4.78;3.17;;;2.60;99.90;;;;;;4947142;28;20444;-71
2021/12/02 10:47:22;;;;;;;5.10;3.58;;;2.10;99.90;;;;;;4959543;28;20043;-70
2021/12/02 10:49:56;;;;;;;7.65;4.22;;;1.80;99.90;;;;;;4947090;28;20229;-70
2021/12/02 10:52:33;;;;;;;10.48;5.53;;;1.60;99.90;;;;;;4943354;28;20054;-70
2021/12/02 10:55:03;;;;;;;16.13;8.10;;;1.50;99.90;;;;;;4958299;28;20047;-68
2021/12/02 10:57:33;;;;;;;15.65;9.57;;;1.60;99.90;;;;;;4925877;28;20043;-70
2021/12/02 11:00:08;;;;;;;18.10;10.40;;;1.60;99.90;;;;;;4944352;28;20109;-70
2021/12/02 11:02:48;;;;;;;19.55;9.27;;;1.50;99.90;;;;;;4912250;28;20051;-70
2021/12/02 11:05:22;;;;;;;13.85;8.20;;;1.60;99.90;;;;;;4960926;28;20043;-68
2021/12/02 11:08:10;;;;;;;18.02;9.55;;;1.60;99.90;;;;;;4953883;28;20074;-68
2021/12/02 11:10:40;;;;;;;18.15;8.82;;;1.60;99.90;;;;;;4938219;28;20431;-69
2021/12/02 11:13:09;;;;;;;18.65;9.07;;;1.50;99.90;;;;;;4922176;29;20059;-69
2021/12/02 11:15:38;;;;;;;17.17;8.30;;;1.60;99.90;;;;;;4940873;28;20043;-69
2021/12/02 11:18:11;;;;;;;18.48;9.85;;;1.60;99.90;;;;;;4941470;29;20134;-71
2021/12/02 11:20:39;;;;;;;19.70;9.40;;;1.60;99.90;;;;;;4929944;28;20575;-70
2021/12/02 11:23:08;;;;;;;18.67;9.52;;;1.70;99.90;;;;;;4923517;29;20154;-70
2021/12/02 11:25:39;;;;;;;20.08;8.68;;;1.80;99.90;;;;;;4928305;28;20050;-70
2021/12/02 11:28:08;;;;;;;11.60;6.80;;;1.80;99.90;;;;;;4958903;28;20058;-71
2021/12/02 11:30:36;;;;;;;15.05;7.63;;;1.90;99.90;;;;;;4956564;28;20050;-70
2021/12/02 11:33:32;;;;;;;11.38;6.55;;;1.90;99.90;;;;;;4942765;28;20054;-71
2021/12/02 11:35:59;;;;;;;14.77;8.35;;;1.90;99.90;;;;;;4971821;28;20057;-73
2021/12/02 11:38:29;;;;;;;13.05;7.85;;;2.00;99.90;;;;;;4973991;28;20062;-74
2021/12/02 11:41:03;;;;;;;14.32;7.35;;;2.00;99.90;;;;;;4960186;28;20412;-73
2021/12/02 11:43:36;;;;;;;16.73;8.95;;;2.10;99.90;;;;;;4959703;28;20559;-71
2021/12/02 11:46:10;;;;;;;16.48;8.15;;;2.20;99.90;;;;;;4939768;28;20070;-71
2021/12/02 11:48:43;;;;;;;17.55;8.98;;;2.10;99.90;;;;;;4959205;28;20141;-72
2021/12/02 11:51:19;;;;;;;18.98;9.82;;;2.10;99.90;;;;;;4958388;28;20051;-74
2021/12/02 11:53:46;;;;;;;14.23;8.75;;;2.10;99.90;;;;;;4947527;28;20042;-74
2021/12/02 11:56:16;;;;;;;17.08;9.45;;;2.10;99.90;;;;;;4962236;28;20046;-74
2021/12/02 11:58:45;;;;;;;14.63;8.52;;;2.30;99.90;;;;;;4927254;28;20055;-74
2021/12/02 12:01:19;;;;;;;15.60;7.75;;;2.20;99.90;;;;;;4944430;28;20067;-76
2021/12/02 12:04:01;;;;;;;10.63;5.32;;;2.20;99.90;;;;;;4942021;28;20046;-74
2021/12/02 12:06:31;;;;;;;17.83;5.40;;;2.10;99.90;;;;;;4963120;28;20233;-75
2021/12/02 12:09:00;;;;;;;11.65;4.97;;;2.00;99.90;;;;;;4946228;28;20322;-74
2021/12/02 12:11:33;;;;;;;7.93;5.20;;;2.10;99.90;;;;;;4944997;28;20218;-73
2021/12/02 12:14:06;;;;;;;12.55;6.22;;;2.10;99.90;;;;;;4963350;28;20069;-73
2021/12/02 12:16:45;;;;;;;9.80;5.70;;;2.20;99.90;;;;;;4949727;28;20162;-75
2021/12/02 12:19:21;;;;;;;6.97;4.93;;;2.10;99.90;;;;;;4925222;29;20150;-73
2021/12/02 12:21:56;;;;;;;8.52;5.88;;;2.00;99.90;;;;;;4925046;28;20071;-74
2021/12/02 12:24:42;;;;;;;12.55;6.47;;;2.00;99.90;;;;;;4961043;28;20554;-74
2021/12/02 12:27:19;;;;;;;;;;;2.00;99.90;;;;;;4959933;28;20154;-71
2021/12/02 12:30:12;;;;;;;15.45;7.60;;;2.10;99.90;;;;;;4955927;28;19985;-71
2021/12/02 12:38:23;;;;;;;8.63;4.15;;;2.00;99.90;;;;;;4972996;28;20130;-69
2021/12/02 12:41:01;;;;;;;9.20;5.40;;;1.90;99.90;;;;;;4961236;28;20121;-71
2021/12/02 12:43:38;;;;;;;8.73;5.18;;;1.90;99.90;;;;;;4976177;28;20066;-70
2021/12/02 12:46:15;;;;;;;7.45;4.95;;;1.80;99.90;;;;;;4942267;28;20046;-71
2021/12/02 12:48:42;;;;;;;11.15;6.45;;;1.90;99.90;;;;;;4957418;28;20407;-71
2021/12/02 12:51:16;;;;;;;14.38;6.97;;;1.90;99.90;;;;;;4959301;28;20054;-73
2021/12/02 12:53:45;;;;;;;12.10;6.05;;;1.90;99.90;;;;;;4944389;28;20058;-72
2021/12/02 12:56:14;;;;;;;15.45;7.70;;;1.90;99.90;;;;;;4945063;28;20051;-74
2021/12/02 12:58:53;;;;;;;14.75;7.60;;;1.80;99.90;;;;;;4943332;28;20137;-72
2021/12/02 13:01:22;;;;;;;13.88;7.85;;;1.90;99.90;;;;;;4974373;28;20046;-74
2021/12/02 13:04:09;;;;;;;13.55;8.98;;;1.90;99.90;;;;;;4960396;28;20137;-74
2021/12/02 13:07:00;;;;;;;13.90;8.40;;;2.00;99.90;;;;;;4959687;28;20446;-73
2021/12/02 13:09:53;;;;;;;12.27;8.10;;;2.10;99.90;;;;;;4938220;28;20074;-72
2021/12/02 13:12:47;;;;;;;14.77;7.78;;;2.10;99.90;;;;;;4959775;28;20065;-73
2021/12/02 13:15:17;;;;;;;11.32;7.05;;;2.00;99.90;;;;;;4976005;28;20085;-72
2021/12/02 13:17:45;;;;;;;10.20;6.53;;;1.90;99.90;;;;;;4959843;28;20050;-73
2021/12/02 13:20:17;;;;;;;12.45;7.53;;;1.80;99.90;;;;;;4958913;28;20045;-71
2021/12/02 13:22:46;;;;;;;10.93;3.72;;;1.80;99.90;;;;;;4963746;28;20082;-71
2021/12/02 13:25:24;;;;;;;8.20;4.20;;;1.50;99.90;;;;;;4960862;28;20047;-70
2021/12/02 13:27:51;;;;;;;8.40;5.70;;;1.40;99.90;;;;;;4956658;28;20042;-70
2021/12/02 13:30:18;;;;;;;7.15;4.22;;;1.40;99.90;;;;;;4955695;28;20043;-70